createdAt,value
2022-12-03T00:01:04.876Z,-3.19
2022-12-03T00:06:07.996Z,-3.09
2022-12-03T00:11:10.928Z,-3.02
2022-12-03T00:16:13.979Z,-3.00
2022-12-03T00:21:16.895Z,-2.99
2022-12-03T00:26:19.925Z,-3.00
2022-12-03T00:31:23.660Z,-3.00
2022-12-03T00:36:26.611Z,-2.93
2022-12-03T00:41:29.312Z,-2.92
2022-12-03T00:46:32.173Z,-2.95
2022-12-03T00:51:35.916Z,-2.93
2022-12-03T00:56:38.795Z,-2.91
2022-12-03T01:01:41.577Z,-2.90
2022-12-03T01:06:44.471Z,-2.87
2022-12-03T01:11:47.433Z,-2.85
2022-12-03T01:16:50.264Z,-2.89
2022-12-03T01:21:53.080Z,-2.87
2022-12-03T01:26:56.814Z,-2.87
2022-12-03T01:32:17.569Z,-2.85
2022-12-03T01:37:23.999Z,-2.92
2022-12-03T01:42:35.171Z,-3.01
2022-12-03T01:47:38.423Z,-3.06
2022-12-03T01:52:42.205Z,-3.08
2022-12-03T01:57:51.403Z,-3.05
2022-12-03T02:02:58.918Z,-3.01
2022-12-03T02:08:01.825Z,-3.01
2022-12-03T02:13:08.715Z,-2.95
2022-12-03T02:18:12.056Z,-2.90
2022-12-03T02:23:29.769Z,-2.90
2022-12-03T02:28:32.964Z,-2.89
2022-12-03T02:33:35.794Z,-2.88
2022-12-03T02:38:39.629Z,-2.88
2022-12-03T02:43:42.372Z,-2.88
2022-12-03T02:48:45.255Z,-2.87
2022-12-03T02:53:50.765Z,-2.87
2022-12-03T02:58:57.889Z,-2.87
2022-12-03T03:04:02.740Z,-2.88
2022-12-03T03:09:05.668Z,-2.89
2022-12-03T03:14:08.551Z,-2.88
2022-12-03T03:19:11.326Z,-2.82
2022-12-03T03:24:14.152Z,-2.81
2022-12-03T03:29:17.444Z,-2.83
2022-12-03T03:34:20.604Z,-2.82
2022-12-03T03:39:23.390Z,-2.83
2022-12-03T03:44:26.815Z,-2.86
2022-12-03T03:49:29.698Z,-2.86
2022-12-03T03:54:32.960Z,-2.86
2022-12-03T03:59:35.710Z,-2.84
2022-12-03T04:04:38.534Z,-2.86
2022-12-03T04:09:41.691Z,-2.86
2022-12-03T04:14:44.466Z,-2.83
2022-12-03T04:19:47.225Z,-2.79
2022-12-03T04:24:49.974Z,-2.73
2022-12-03T04:29:52.825Z,-2.69
2022-12-03T04:35:14.381Z,-2.67
2022-12-03T04:40:55.642Z,-2.67
2022-12-03T04:45:59.026Z,-2.71
2022-12-03T04:51:01.781Z,-2.73
2022-12-03T04:56:04.706Z,-2.72
2022-12-03T05:01:07.725Z,-2.69
2022-12-03T05:06:10.600Z,-2.67
2022-12-03T05:11:13.405Z,-2.65
2022-12-03T05:16:16.231Z,-2.63
2022-12-03T05:21:19.110Z,-2.63
2022-12-03T05:26:22.393Z,-2.60
2022-12-03T05:31:25.272Z,-2.57
2022-12-03T05:36:28.642Z,-2.56
2022-12-03T05:41:50.273Z,-2.54
2022-12-03T05:46:53.086Z,-2.51
2022-12-03T05:51:58.639Z,-2.54
2022-12-03T05:57:01.861Z,-2.53
2022-12-03T06:02:04.732Z,-2.49
2022-12-03T06:07:13.615Z,-2.47
2022-12-03T06:12:17.229Z,-2.39
2022-12-03T06:17:20.033Z,-2.33
2022-12-03T06:22:23.153Z,-2.35
2022-12-03T06:27:26.044Z,-2.35
2022-12-03T06:32:28.833Z,-2.34
2022-12-03T06:37:31.650Z,-2.33
2022-12-03T06:42:34.337Z,-2.33
2022-12-03T06:47:37.753Z,-2.24
2022-12-03T06:52:40.567Z,-2.15
2022-12-03T06:57:43.497Z,-2.17
2022-12-03T07:02:46.309Z,-2.15
2022-12-03T07:07:52.246Z,-2.08
2022-12-03T07:12:55.253Z,-2.03
2022-12-03T07:17:58.159Z,-2.00
2022-12-03T07:23:00.980Z,-2.01
2022-12-03T07:28:03.919Z,-2.03
2022-12-03T07:33:06.667Z,-2.05
2022-12-03T07:38:09.399Z,-2.01
2022-12-03T07:43:12.106Z,-2.02
2022-12-03T07:48:14.992Z,-1.94
2022-12-03T07:53:18.069Z,-1.87
2022-12-03T07:58:20.847Z,-1.76
2022-12-03T08:03:23.874Z,-1.65
2022-12-03T08:08:26.606Z,-1.65
2022-12-03T08:13:29.449Z,-1.63
2022-12-03T08:18:33.110Z,-1.61
2022-12-03T08:23:36.641Z,-1.57
2022-12-03T08:28:39.532Z,-1.50
2022-12-03T08:33:42.343Z,-1.49
2022-12-03T08:38:50.590Z,-1.50
2022-12-03T08:43:53.265Z,-1.49
2022-12-03T08:48:56.062Z,-1.46
2022-12-03T08:54:04.593Z,-1.41
2022-12-03T08:59:29.670Z,-1.39
2022-12-03T09:04:46.278Z,-1.32
2022-12-03T09:09:49.060Z,-1.26
2022-12-03T09:14:52.120Z,-1.24
2022-12-03T09:19:55.370Z,-1.35
2022-12-03T09:24:58.273Z,-1.46
2022-12-03T09:30:01.179Z,-1.55
2022-12-03T09:35:04.991Z,-1.64
2022-12-03T09:40:09.352Z,-1.68
2022-12-03T09:45:14.759Z,-1.66
2022-12-03T09:50:23.568Z,-1.59
2022-12-03T09:55:28.747Z,-1.53
2022-12-03T10:00:32.199Z,-1.44
2022-12-03T10:05:35.229Z,-1.33
2022-12-03T10:10:41.104Z,-1.34
2022-12-03T10:15:43.925Z,-1.40
2022-12-03T10:20:47.216Z,-1.42
2022-12-03T10:25:56.265Z,-1.39
2022-12-03T10:31:00.815Z,-1.31
2022-12-03T10:36:25.317Z,-1.22
2022-12-03T10:41:29.246Z,-1.19
2022-12-03T10:46:32.334Z,-1.17
2022-12-03T10:51:35.741Z,-1.21
2022-12-03T10:56:38.574Z,-1.21
2022-12-03T11:01:42.049Z,-1.13
2022-12-03T11:06:45.200Z,-1.13
2022-12-03T11:11:49.437Z,-1.19
2022-12-03T11:16:52.137Z,-1.34
2022-12-03T11:22:05.024Z,-1.49
2022-12-03T11:27:17.900Z,-1.56
2022-12-03T11:32:39.555Z,-1.54
2022-12-03T11:37:42.665Z,-1.55
2022-12-03T11:42:47.455Z,-1.62
2022-12-03T11:47:59.738Z,-1.60
2022-12-03T11:53:23.866Z,-1.56
2022-12-03T11:58:31.245Z,-1.59
2022-12-03T12:03:44.308Z,-1.62
2022-12-03T12:08:57.797Z,-1.63
2022-12-03T12:14:07.608Z,-1.61
2022-12-03T12:19:43.371Z,-1.54
2022-12-03T12:24:48.342Z,-1.50
2022-12-03T12:30:14.109Z,-1.52
2022-12-03T12:35:22.905Z,-1.55
2022-12-03T12:40:29.069Z,-1.56
2022-12-03T12:45:36.411Z,-1.56
2022-12-03T12:50:41.017Z,-1.58
2022-12-03T12:55:43.861Z,-1.51
2022-12-03T13:01:19.488Z,-1.34
2022-12-03T13:06:31.356Z,-0.91
2022-12-03T13:11:42.085Z,-0.46
2022-12-03T13:16:47.260Z,-0.19
2022-12-03T13:21:52.770Z,-0.06
2022-12-03T13:26:56.283Z,0.06
2022-12-03T13:32:01.974Z,-0.09
2022-12-03T13:37:14.260Z,-0.29
2022-12-03T13:42:41.648Z,-0.55
2022-12-03T13:47:49.662Z,-0.85
2022-12-03T13:52:53.218Z,-1.04
2022-12-03T13:57:56.667Z,-1.22
2022-12-03T14:02:59.502Z,-1.34
2022-12-03T14:08:02.532Z,-1.42
2022-12-03T14:13:05.720Z,-1.56
2022-12-03T14:18:08.441Z,-1.66
2022-12-03T14:23:11.224Z,-1.75
2022-12-03T14:28:14.024Z,-1.82
2022-12-03T14:33:16.824Z,-1.83
2022-12-03T14:38:20.158Z,-1.87
2022-12-03T14:43:23.072Z,-1.91
2022-12-03T14:48:27.705Z,-1.91
2022-12-03T14:53:30.413Z,-1.88
2022-12-03T14:58:34.415Z,-1.88
2022-12-03T15:03:37.102Z,-1.88
2022-12-03T15:08:40.021Z,-1.87
2022-12-03T15:13:42.823Z,-1.87
2022-12-03T15:18:45.587Z,-1.92
2022-12-03T15:23:48.423Z,-1.95
2022-12-03T15:28:51.429Z,-1.93
2022-12-03T15:33:54.123Z,-1.95
2022-12-03T15:38:57.755Z,-1.98
2022-12-03T15:44:02.172Z,-1.98
2022-12-03T15:49:04.992Z,-1.98
2022-12-03T15:54:07.735Z,-1.98
2022-12-03T15:59:10.596Z,-1.97
2022-12-03T16:04:13.325Z,-1.96
2022-12-03T16:09:16.058Z,-1.95
2022-12-03T16:14:20.844Z,-1.92
2022-12-03T16:19:23.569Z,-1.90
2022-12-03T16:24:26.452Z,-1.89
2022-12-03T16:29:29.412Z,-1.87
2022-12-03T16:34:32.200Z,-1.84
2022-12-03T16:39:35.021Z,-1.85
2022-12-03T16:44:58.236Z,-1.84
2022-12-03T16:50:03.086Z,-1.82
2022-12-03T16:55:06.756Z,-1.83
2022-12-03T17:00:10.557Z,-1.83
2022-12-03T17:05:13.329Z,-1.80
2022-12-03T17:10:16.455Z,-1.80
2022-12-03T17:15:19.665Z,-1.78
2022-12-03T17:20:22.557Z,-1.75
2022-12-03T17:25:25.693Z,-1.73
2022-12-03T17:30:28.409Z,-1.73
2022-12-03T17:35:31.576Z,-1.70
2022-12-03T17:40:34.293Z,-1.69
2022-12-03T17:45:37.084Z,-1.69
2022-12-03T17:50:39.983Z,-1.66
2022-12-03T17:55:45.054Z,-1.62
2022-12-03T18:00:48.657Z,-1.62
2022-12-03T18:05:51.384Z,-1.62
2022-12-03T18:10:54.466Z,-1.61
2022-12-03T18:15:57.827Z,-1.59
2022-12-03T18:21:04.690Z,-1.56
2022-12-03T18:26:08.057Z,-1.53
2022-12-03T18:31:15.277Z,-1.53
2022-12-03T18:36:24.849Z,-1.52
2022-12-03T18:41:28.103Z,-1.49
2022-12-03T18:46:52.297Z,-1.45
2022-12-03T18:51:59.032Z,-1.41
2022-12-03T18:57:02.486Z,-1.37
2022-12-03T19:02:06.905Z,-1.33
2022-12-03T19:07:11.521Z,-1.29
2022-12-03T19:12:14.862Z,-1.29
2022-12-03T19:17:17.991Z,-1.27
2022-12-03T19:22:21.396Z,-1.24
2022-12-03T19:27:24.212Z,-1.17
2022-12-03T19:32:26.922Z,-1.05
2022-12-03T19:37:32.881Z,-0.96
2022-12-03T19:42:35.895Z,-0.91
2022-12-03T19:47:38.698Z,-0.90
2022-12-03T19:52:41.498Z,-0.90
2022-12-03T19:57:44.223Z,-0.86
2022-12-03T20:02:49.985Z,-0.83
2022-12-03T20:07:53.019Z,-0.78
2022-12-03T20:12:55.896Z,-0.73
2022-12-03T20:17:58.678Z,-0.71
2022-12-03T20:23:01.744Z,-0.73
2022-12-03T20:28:04.588Z,-0.74
2022-12-03T20:33:07.364Z,-0.74
2022-12-03T20:38:10.072Z,-0.73
2022-12-03T20:43:12.907Z,-0.67
2022-12-03T20:48:16.109Z,-0.62
2022-12-03T20:53:24.773Z,-0.59
2022-12-03T20:58:29.719Z,-0.58
2022-12-03T21:03:32.492Z,-0.58
2022-12-03T21:08:41.603Z,-0.56
2022-12-03T21:13:45.864Z,-0.54
2022-12-03T21:18:49.014Z,-0.46
2022-12-03T21:23:52.847Z,-0.37
2022-12-03T21:28:56.338Z,-0.30
2022-12-03T21:33:59.243Z,-0.27
2022-12-03T21:39:02.037Z,-0.30
2022-12-03T21:44:04.862Z,-0.34
2022-12-03T21:49:07.652Z,-0.37
2022-12-03T21:54:10.561Z,-0.37
2022-12-03T21:59:13.299Z,-0.35
2022-12-03T22:04:16.026Z,-0.35
2022-12-03T22:09:23.237Z,-0.37
2022-12-03T22:14:30.192Z,-0.36
2022-12-03T22:19:33.590Z,-0.34
2022-12-03T22:24:36.367Z,-0.33
2022-12-03T22:29:39.675Z,-0.30
2022-12-03T22:34:42.482Z,-0.29
2022-12-03T22:39:45.438Z,-0.27
2022-12-03T22:44:48.186Z,-0.23
2022-12-03T22:49:50.930Z,-0.18
2022-12-03T22:54:53.701Z,-0.15
2022-12-03T22:59:56.727Z,-0.14
2022-12-03T23:04:59.958Z,-0.13
2022-12-03T23:10:02.708Z,-0.09
2022-12-03T23:15:06.470Z,-0.04
2022-12-03T23:20:10.163Z,-0.01
2022-12-03T23:25:13.074Z,0.01
2022-12-03T23:30:16.867Z,0.01
2022-12-03T23:35:19.583Z,0.01
2022-12-03T23:40:22.487Z,0.01
2022-12-03T23:45:25.311Z,0.02
2022-12-03T23:50:28.605Z,0.03
2022-12-03T23:55:31.357Z,0.03
